sensor_id;sensor_type;location;lat;lon;timestamp;P1;durP1;ratioP1;P2;durP2;ratioP2
15342;SDS011;7771;48.478;8.936;2022-08-04T00:02:02;2.83;;;2.53;;
15342;SDS011;7771;48.478;8.936;2022-08-04T00:04:31;2.60;;;2.40;;
15342;SDS011;7771;48.478;8.936;2022-08-04T00:07:03;5.25;;;2.25;;
15342;SDS011;7771;48.478;8.936;2022-08-04T00:09:29;3.37;;;2.25;;
15342;SDS011;7771;48.478;8.936;2022-08-04T00:11:57;2.85;;;2.55;;
15342;SDS011;7771;48.478;8.936;2022-08-04T00:14:22;2.50;;;2.30;;
15342;SDS011;7771;48.478;8.936;2022-08-04T00:16:50;2.75;;;2.42;;
15342;SDS011;7771;48.478;8.936;2022-08-04T00:19:18;3.95;;;2.62;;
15342;SDS011;7771;48.478;8.936;2022-08-04T00:21:46;2.83;;;2.53;;
15342;SDS011;7771;48.478;8.936;2022-08-04T00:24:12;2.92;;;2.53;;
15342;SDS011;7771;48.478;8.936;2022-08-04T00:26:39;3.05;;;2.22;;
15342;SDS011;7771;48.478;8.936;2022-08-04T00:29:07;3.42;;;2.45;;
15342;SDS011;7771;48.478;8.936;2022-08-04T00:31:33;2.80;;;2.55;;
15342;SDS011;7771;48.478;8.936;2022-08-04T00:34:00;3.20;;;2.50;;
15342;SDS011;7771;48.478;8.936;2022-08-04T00:36:26;2.40;;;2.20;;
15342;SDS011;7771;48.478;8.936;2022-08-04T00:38:54;2.55;;;2.08;;
15342;SDS011;7771;48.478;8.936;2022-08-04T00:41:26;2.60;;;2.40;;
15342;SDS011;7771;48.478;8.936;2022-08-04T00:46:27;3.25;;;2.25;;
15342;SDS011;7771;48.478;8.936;2022-08-04T00:49:31;2.60;;;2.40;;
15342;SDS011;7771;48.478;8.936;2022-08-04T00:51:47;3.95;;;2.50;;
15342;SDS011;7771;48.478;8.936;2022-08-04T00:54:17;3.22;;;2.62;;
15342;SDS011;7771;48.478;8.936;2022-08-04T00:59:33;2.53;;;2.30;;
15342;SDS011;7771;48.478;8.936;2022-08-04T01:02:00;2.80;;;2.55;;
15342;SDS011;7771;48.478;8.936;2022-08-04T01:13:04;3.72;;;2.67;;
15342;SDS011;7771;48.478;8.936;2022-08-04T01:18:05;9.20;;;3.25;;
15342;SDS011;7771;48.478;8.936;2022-08-04T01:20:32;3.10;;;2.80;;
15342;SDS011;7771;48.478;8.936;2022-08-04T01:25:56;5.80;;;2.40;;
15342;SDS011;7771;48.478;8.936;2022-08-04T01:28:29;2.97;;;2.37;;
15342;SDS011;7771;48.478;8.936;2022-08-04T01:31:13;5.20;;;3.08;;
15342;SDS011;7771;48.478;8.936;2022-08-04T01:33:40;3.10;;;2.58;;
15342;SDS011;7771;48.478;8.936;2022-08-04T01:36:06;2.75;;;2.45;;
15342;SDS011;7771;48.478;8.936;2022-08-04T01:38:34;2.90;;;2.70;;
15342;SDS011;7771;48.478;8.936;2022-08-04T01:41:02;3.72;;;2.83;;
15342;SDS011;7771;48.478;8.936;2022-08-04T01:43:28;3.67;;;2.78;;
15342;SDS011;7771;48.478;8.936;2022-08-04T01:45:56;3.47;;;3.00;;
15342;SDS011;7771;48.478;8.936;2022-08-04T01:48:23;3.30;;;3.00;;
15342;SDS011;7771;48.478;8.936;2022-08-04T01:50:51;3.03;;;2.53;;
15342;SDS011;7771;48.478;8.936;2022-08-04T01:53:18;3.40;;;2.87;;
15342;SDS011;7771;48.478;8.936;2022-08-04T01:55:45;3.10;;;2.80;;
15342;SDS011;7771;48.478;8.936;2022-08-04T01:58:11;3.87;;;2.85;;
15342;SDS011;7771;48.478;8.936;2022-08-04T02:00:37;3.42;;;3.12;;
15342;SDS011;7771;48.478;8.936;2022-08-04T02:03:04;3.97;;;2.90;;
15342;SDS011;7771;48.478;8.936;2022-08-04T02:05:31;3.17;;;2.70;;
15342;SDS011;7771;48.478;8.936;2022-08-04T02:08:04;3.00;;;2.70;;
15342;SDS011;7771;48.478;8.936;2022-08-04T02:15:41;4.12;;;2.85;;
15342;SDS011;7771;48.478;8.936;2022-08-04T02:18:11;3.08;;;2.78;;
15342;SDS011;7771;48.478;8.936;2022-08-04T02:20:37;2.75;;;2.45;;
15342;SDS011;7771;48.478;8.936;2022-08-04T02:23:04;4.40;;;2.80;;
15342;SDS011;7771;48.478;8.936;2022-08-04T02:25:31;4.15;;;2.80;;
15342;SDS011;7771;48.478;8.936;2022-08-04T02:28:02;3.33;;;3.03;;
15342;SDS011;7771;48.478;8.936;2022-08-04T02:30:30;3.83;;;3.03;;
15342;SDS011;7771;48.478;8.936;2022-08-04T02:32:56;5.28;;;2.70;;
15342;SDS011;7771;48.478;8.936;2022-08-04T02:35:24;4.43;;;3.00;;
15342;SDS011;7771;48.478;8.936;2022-08-04T02:37:54;7.22;;;2.90;;
15342;SDS011;7771;48.478;8.936;2022-08-04T02:40:18;3.30;;;2.80;;
15342;SDS011;7771;48.478;8.936;2022-08-04T02:42:44;3.95;;;2.72;;
15342;SDS011;7771;48.478;8.936;2022-08-04T02:45:11;2.92;;;2.72;;
15342;SDS011;7771;48.478;8.936;2022-08-04T02:47:37;2.85;;;2.65;;
15342;SDS011;7771;48.478;8.936;2022-08-04T02:50:04;3.35;;;3.00;;
15342;SDS011;7771;48.478;8.936;2022-08-04T02:52:31;3.30;;;3.00;;
15342;SDS011;7771;48.478;8.936;2022-08-04T02:54:58;5.47;;;3.05;;
15342;SDS011;7771;48.478;8.936;2022-08-04T02:57:26;3.22;;;2.92;;
15342;SDS011;7771;48.478;8.936;2022-08-04T03:00:12;3.47;;;3.03;;
15342;SDS011;7771;48.478;8.936;2022-08-04T03:03:00;3.58;;;3.28;;
15342;SDS011;7771;48.478;8.936;2022-08-04T03:05:25;4.60;;;3.28;;
15342;SDS011;7771;48.478;8.936;2022-08-04T03:07:56;3.15;;;2.83;;
15342;SDS011;7771;48.478;8.936;2022-08-04T03:10:29;3.22;;;2.92;;
15342;SDS011;7771;48.478;8.936;2022-08-04T03:13:04;3.15;;;2.80;;
15342;SDS011;7771;48.478;8.936;2022-08-04T03:15:43;4.37;;;2.85;;
15342;SDS011;7771;48.478;8.936;2022-08-04T03:19:21;4.15;;;3.05;;
15342;SDS011;7771;48.478;8.936;2022-08-04T03:21:20;3.83;;;3.45;;
15342;SDS011;7771;48.478;8.936;2022-08-04T03:29:18;2.97;;;2.78;;
15342;SDS011;7771;48.478;8.936;2022-08-04T03:31:58;4.53;;;3.15;;
15342;SDS011;7771;48.478;8.936;2022-08-04T03:35:02;4.22;;;3.03;;
15342;SDS011;7771;48.478;8.936;2022-08-04T03:37:35;3.83;;;2.87;;
15342;SDS011;7771;48.478;8.936;2022-08-04T03:40:07;3.55;;;3.25;;
15342;SDS011;7771;48.478;8.936;2022-08-04T03:42:43;4.72;;;3.08;;
15342;SDS011;7771;48.478;8.936;2022-08-04T03:50:49;3.78;;;2.85;;
15342;SDS011;7771;48.478;8.936;2022-08-04T03:53:20;4.00;;;2.80;;
15342;SDS011;7771;48.478;8.936;2022-08-04T03:56:32;4.60;;;3.12;;
15342;SDS011;7771;48.478;8.936;2022-08-04T03:59:08;3.33;;;2.97;;
15342;SDS011;7771;48.478;8.936;2022-08-04T04:01:42;4.78;;;3.47;;
15342;SDS011;7771;48.478;8.936;2022-08-04T04:07:10;3.10;;;2.65;;
15342;SDS011;7771;48.478;8.936;2022-08-04T04:09:53;4.30;;;3.28;;
15342;SDS011;7771;48.478;8.936;2022-08-04T04:12:27;4.03;;;3.30;;
15342;SDS011;7771;48.478;8.936;2022-08-04T04:14:59;4.15;;;3.20;;
15342;SDS011;7771;48.478;8.936;2022-08-04T04:20:12;3.70;;;2.92;;
15342;SDS011;7771;48.478;8.936;2022-08-04T04:22:51;4.85;;;3.15;;
15342;SDS011;7771;48.478;8.936;2022-08-04T04:25:27;4.12;;;3.28;;
15342;SDS011;7771;48.478;8.936;2022-08-04T04:28:04;3.12;;;2.80;;
15342;SDS011;7771;48.478;8.936;2022-08-04T04:30:31;3.35;;;3.05;;
15342;SDS011;7771;48.478;8.936;2022-08-04T04:33:02;5.30;;;3.47;;
15342;SDS011;7771;48.478;8.936;2022-08-04T04:35:35;4.53;;;3.40;;
15342;SDS011;7771;48.478;8.936;2022-08-04T04:38:09;3.70;;;3.05;;
15342;SDS011;7771;48.478;8.936;2022-08-04T04:40:54;3.22;;;2.75;;
15342;SDS011;7771;48.478;8.936;2022-08-04T04:43:31;3.37;;;3.00;;
15342;SDS011;7771;48.478;8.936;2022-08-04T04:46:00;3.00;;;2.70;;
15342;SDS011;7771;48.478;8.936;2022-08-04T04:49:36;3.37;;;3.08;;
15342;SDS011;7771;48.478;8.936;2022-08-04T04:51:30;4.90;;;2.92;;
15342;SDS011;7771;48.478;8.936;2022-08-04T04:54:03;3.75;;;2.97;;
15342;SDS011;7771;48.478;8.936;2022-08-04T04:59:04;3.35;;;3.05;;
15342;SDS011;7771;48.478;8.936;2022-08-04T05:01:36;2.85;;;2.65;;
15342;SDS011;7771;48.478;8.936;2022-08-04T05:04:22;3.45;;;3.15;;
15342;SDS011;7771;48.478;8.936;2022-08-04T05:07:27;3.12;;;2.70;;
15342;SDS011;7771;48.478;8.936;2022-08-04T05:09:36;3.65;;;2.78;;
15342;SDS011;7771;48.478;8.936;2022-08-04T05:14:55;3.05;;;2.75;;
15342;SDS011;7771;48.478;8.936;2022-08-04T05:17:33;3.78;;;2.78;;
15342;SDS011;7771;48.478;8.936;2022-08-04T05:20:17;3.85;;;2.80;;
15342;SDS011;7771;48.478;8.936;2022-08-04T05:22:46;4.82;;;3.17;;
15342;SDS011;7771;48.478;8.936;2022-08-04T05:25:17;3.50;;;3.00;;
15342;SDS011;7771;48.478;8.936;2022-08-04T05:27:46;3.12;;;2.83;;
15342;SDS011;7771;48.478;8.936;2022-08-04T05:30:12;3.12;;;2.75;;
15342;SDS011;7771;48.478;8.936;2022-08-04T05:32:42;3.05;;;2.47;;
15342;SDS011;7771;48.478;8.936;2022-08-04T05:35:11;3.95;;;2.97;;
15342;SDS011;7771;48.478;8.936;2022-08-04T05:37:37;3.15;;;2.85;;
15342;SDS011;7771;48.478;8.936;2022-08-04T05:40:04;3.85;;;2.80;;
15342;SDS011;7771;48.478;8.936;2022-08-04T05:42:31;3.80;;;3.37;;
15342;SDS011;7771;48.478;8.936;2022-08-04T05:44:57;5.75;;;3.20;;
15342;SDS011;7771;48.478;8.936;2022-08-04T05:47:23;2.92;;;2.72;;
15342;SDS011;7771;48.478;8.936;2022-08-04T05:49:51;4.30;;;3.33;;
15342;SDS011;7771;48.478;8.936;2022-08-04T05:52:18;3.60;;;3.30;;
15342;SDS011;7771;48.478;8.936;2022-08-04T05:54:46;3.25;;;2.95;;
15342;SDS011;7771;48.478;8.936;2022-08-04T05:57:13;2.97;;;2.78;;
15342;SDS011;7771;48.478;8.936;2022-08-04T05:59:40;3.08;;;2.78;;
15342;SDS011;7771;48.478;8.936;2022-08-04T06:02:06;3.33;;;3.03;;
15342;SDS011;7771;48.478;8.936;2022-08-04T06:04:34;6.43;;;3.30;;
15342;SDS011;7771;48.478;8.936;2022-08-04T06:07:01;3.22;;;2.80;;
15342;SDS011;7771;48.478;8.936;2022-08-04T06:09:29;3.20;;;2.90;;
15342;SDS011;7771;48.478;8.936;2022-08-04T06:11:58;5.12;;;3.15;;
15342;SDS011;7771;48.478;8.936;2022-08-04T06:14:26;4.25;;;3.03;;
15342;SDS011;7771;48.478;8.936;2022-08-04T06:16:52;3.95;;;2.72;;
15342;SDS011;7771;48.478;8.936;2022-08-04T06:19:20;3.00;;;2.80;;
15342;SDS011;7771;48.478;8.936;2022-08-04T06:21:46;3.10;;;2.80;;
15342;SDS011;7771;48.478;8.936;2022-08-04T06:24:15;5.50;;;3.30;;
15342;SDS011;7771;48.478;8.936;2022-08-04T06:26:40;4.32;;;2.97;;
15342;SDS011;7771;48.478;8.936;2022-08-04T06:29:07;5.30;;;3.00;;
15342;SDS011;7771;48.478;8.936;2022-08-04T06:31:35;4.15;;;3.15;;
15342;SDS011;7771;48.478;8.936;2022-08-04T06:34:09;2.90;;;2.60;;
15342;SDS011;7771;48.478;8.936;2022-08-04T06:36:35;2.95;;;2.70;;
15342;SDS011;7771;48.478;8.936;2022-08-04T06:39:02;3.15;;;2.85;;
15342;SDS011;7771;48.478;8.936;2022-08-04T06:41:28;4.57;;;2.85;;
15342;SDS011;7771;48.478;8.936;2022-08-04T06:43:57;3.67;;;2.90;;
15342;SDS011;7771;48.478;8.936;2022-08-04T06:46:22;4.85;;;3.03;;
15342;SDS011;7771;48.478;8.936;2022-08-04T06:48:49;5.50;;;3.47;;
15342;SDS011;7771;48.478;8.936;2022-08-04T06:51:20;5.40;;;2.92;;
15342;SDS011;7771;48.478;8.936;2022-08-04T06:53:46;5.18;;;3.08;;
15342;SDS011;7771;48.478;8.936;2022-08-04T06:56:13;3.78;;;3.42;;
15342;SDS011;7771;48.478;8.936;2022-08-04T06:58:40;5.62;;;3.20;;
15342;SDS011;7771;48.478;8.936;2022-08-04T07:01:06;2.97;;;2.78;;
15342;SDS011;7771;48.478;8.936;2022-08-04T07:03:33;4.87;;;3.03;;
15342;SDS011;7771;48.478;8.936;2022-08-04T07:06:00;4.72;;;3.62;;
15342;SDS011;7771;48.478;8.936;2022-08-04T07:08:27;4.95;;;3.50;;
15342;SDS011;7771;48.478;8.936;2022-08-04T07:10:54;4.75;;;3.28;;
15342;SDS011;7771;48.478;8.936;2022-08-04T07:13:21;3.15;;;2.85;;
15342;SDS011;7771;48.478;8.936;2022-08-04T07:15:47;5.32;;;2.85;;
15342;SDS011;7771;48.478;8.936;2022-08-04T07:18:15;3.85;;;2.30;;
15342;SDS011;7771;48.478;8.936;2022-08-04T07:20:42;3.85;;;2.35;;
15342;SDS011;7771;48.478;8.936;2022-08-04T07:23:09;4.50;;;2.30;;
15342;SDS011;7771;48.478;8.936;2022-08-04T07:25:36;3.15;;;2.58;;
15342;SDS011;7771;48.478;8.936;2022-08-04T07:28:04;3.50;;;2.47;;
15342;SDS011;7771;48.478;8.936;2022-08-04T07:30:30;4.40;;;2.58;;
15342;SDS011;7771;48.478;8.936;2022-08-04T07:32:57;2.67;;;2.47;;
15342;SDS011;7771;48.478;8.936;2022-08-04T07:35:24;3.75;;;2.47;;
15342;SDS011;7771;48.478;8.936;2022-08-04T07:37:50;6.20;;;2.40;;
15342;SDS011;7771;48.478;8.936;2022-08-04T07:40:17;2.90;;;2.62;;
15342;SDS011;7771;48.478;8.936;2022-08-04T07:42:43;5.47;;;2.30;;
15342;SDS011;7771;48.478;8.936;2022-08-04T07:45:10;4.57;;;2.28;;
15342;SDS011;7771;48.478;8.936;2022-08-04T07:47:37;2.87;;;2.47;;
15342;SDS011;7771;48.478;8.936;2022-08-04T07:50:04;3.85;;;2.45;;
15342;SDS011;7771;48.478;8.936;2022-08-04T07:52:31;6.10;;;2.53;;
15342;SDS011;7771;48.478;8.936;2022-08-04T07:54:58;2.55;;;2.35;;
15342;SDS011;7771;48.478;8.936;2022-08-04T07:57:24;3.65;;;2.58;;
15342;SDS011;7771;48.478;8.936;2022-08-04T07:59:51;3.65;;;2.37;;
15342;SDS011;7771;48.478;8.936;2022-08-04T08:02:18;5.12;;;2.62;;
15342;SDS011;7771;48.478;8.936;2022-08-04T08:04:45;2.45;;;2.25;;
15342;SDS011;7771;48.478;8.936;2022-08-04T08:07:13;3.78;;;2.10;;
15342;SDS011;7771;48.478;8.936;2022-08-04T08:09:40;4.32;;;3.00;;
15342;SDS011;7771;48.478;8.936;2022-08-04T08:12:08;2.97;;;2.70;;
15342;SDS011;7771;48.478;8.936;2022-08-04T08:14:35;2.87;;;2.47;;
15342;SDS011;7771;48.478;8.936;2022-08-04T08:17:03;2.37;;;2.08;;
15342;SDS011;7771;48.478;8.936;2022-08-04T08:19:29;4.10;;;2.42;;
15342;SDS011;7771;48.478;8.936;2022-08-04T08:21:55;5.05;;;2.92;;
15342;SDS011;7771;48.478;8.936;2022-08-04T08:24:22;2.90;;;2.70;;
15342;SDS011;7771;48.478;8.936;2022-08-04T08:26:49;5.35;;;2.33;;
15342;SDS011;7771;48.478;8.936;2022-08-04T08:29:16;3.33;;;2.85;;
15342;SDS011;7771;48.478;8.936;2022-08-04T08:31:43;5.30;;;3.25;;
15342;SDS011;7771;48.478;8.936;2022-08-04T08:34:11;2.65;;;2.40;;
15342;SDS011;7771;48.478;8.936;2022-08-04T08:36:42;3.05;;;2.72;;
15342;SDS011;7771;48.478;8.936;2022-08-04T08:39:14;6.18;;;3.20;;
15342;SDS011;7771;48.478;8.936;2022-08-04T08:44:40;3.92;;;2.60;;
15342;SDS011;7771;48.478;8.936;2022-08-04T08:50:03;3.33;;;2.40;;
15342;SDS011;7771;48.478;8.936;2022-08-04T08:52:43;3.97;;;2.58;;
15342;SDS011;7771;48.478;8.936;2022-08-04T08:55:16;2.60;;;2.40;;
15342;SDS011;7771;48.478;8.936;2022-08-04T08:57:43;2.78;;;2.40;;
15342;SDS011;7771;48.478;8.936;2022-08-04T09:00:17;2.60;;;2.40;;
15342;SDS011;7771;48.478;8.936;2022-08-04T09:03:52;2.90;;;2.60;;
15342;SDS011;7771;48.478;8.936;2022-08-04T09:05:39;4.60;;;2.40;;
15342;SDS011;7771;48.478;8.936;2022-08-04T09:10:53;4.00;;;2.37;;
15342;SDS011;7771;48.478;8.936;2022-08-04T09:13:23;2.53;;;2.33;;
15342;SDS011;7771;48.478;8.936;2022-08-04T09:18:42;4.20;;;2.80;;
15342;SDS011;7771;48.478;8.936;2022-08-04T09:21:10;4.37;;;3.97;;
15342;SDS011;7771;48.478;8.936;2022-08-04T09:26:33;2.62;;;2.42;;
15342;SDS011;7771;48.478;8.936;2022-08-04T09:29:06;3.65;;;2.78;;
15342;SDS011;7771;48.478;8.936;2022-08-04T09:32:03;3.80;;;2.45;;
15342;SDS011;7771;48.478;8.936;2022-08-04T09:34:45;2.15;;;1.95;;
15342;SDS011;7771;48.478;8.936;2022-08-04T09:37:26;3.92;;;2.58;;
15342;SDS011;7771;48.478;8.936;2022-08-04T09:39:55;2.47;;;2.17;;
15342;SDS011;7771;48.478;8.936;2022-08-04T09:45:15;3.10;;;2.12;;
15342;SDS011;7771;48.478;8.936;2022-08-04T09:47:46;2.45;;;2.22;;
15342;SDS011;7771;48.478;8.936;2022-08-04T09:50:31;2.70;;;2.20;;
15342;SDS011;7771;48.478;8.936;2022-08-04T09:53:02;2.30;;;2.10;;
15342;SDS011;7771;48.478;8.936;2022-08-04T09:55:51;1.60;;;1.50;;
15342;SDS011;7771;48.478;8.936;2022-08-04T09:58:21;1.77;;;1.67;;
15342;SDS011;7771;48.478;8.936;2022-08-04T10:00:52;1.60;;;1.50;;
15342;SDS011;7771;48.478;8.936;2022-08-04T10:03:16;2.05;;;1.73;;
15342;SDS011;7771;48.478;8.936;2022-08-04T10:10:59;2.20;;;2.00;;
15342;SDS011;7771;48.478;8.936;2022-08-04T10:13:37;2.65;;;1.73;;
15342;SDS011;7771;48.478;8.936;2022-08-04T10:16:10;2.65;;;2.10;;
15342;SDS011;7771;48.478;8.936;2022-08-04T10:18:39;3.20;;;1.70;;
15342;SDS011;7771;48.478;8.936;2022-08-04T10:21:17;2.45;;;1.60;;
15342;SDS011;7771;48.478;8.936;2022-08-04T10:23:51;1.90;;;1.52;;
15342;SDS011;7771;48.478;8.936;2022-08-04T10:26:32;2.40;;;2.08;;
15342;SDS011;7771;48.478;8.936;2022-08-04T10:29:03;2.67;;;2.08;;
15342;SDS011;7771;48.478;8.936;2022-08-04T10:31:29;3.58;;;2.22;;
15342;SDS011;7771;48.478;8.936;2022-08-04T10:34:02;2.78;;;1.62;;
15342;SDS011;7771;48.478;8.936;2022-08-04T10:36:27;4.68;;;1.95;;
15342;SDS011;7771;48.478;8.936;2022-08-04T10:38:59;3.90;;;1.70;;
15342;SDS011;7771;48.478;8.936;2022-08-04T10:41:33;4.30;;;2.40;;
15342;SDS011;7771;48.478;8.936;2022-08-04T10:46:43;3.28;;;1.77;;
15342;SDS011;7771;48.478;8.936;2022-08-04T10:49:23;3.08;;;2.40;;
15342;SDS011;7771;48.478;8.936;2022-08-04T10:51:52;2.47;;;1.83;;
15342;SDS011;7771;48.478;8.936;2022-08-04T10:54:46;2.30;;;1.83;;
15342;SDS011;7771;48.478;8.936;2022-08-04T10:57:13;2.12;;;1.87;;
15342;SDS011;7771;48.478;8.936;2022-08-04T10:59:59;1.83;;;1.73;;
15342;SDS011;7771;48.478;8.936;2022-08-04T11:02:36;1.85;;;1.73;;
15342;SDS011;7771;48.478;8.936;2022-08-04T11:05:04;2.85;;;1.62;;
15342;SDS011;7771;48.478;8.936;2022-08-04T11:07:30;2.05;;;1.55;;
15342;SDS011;7771;48.478;8.936;2022-08-04T11:09:56;2.95;;;1.87;;
15342;SDS011;7771;48.478;8.936;2022-08-04T11:12:24;5.78;;;1.85;;
15342;SDS011;7771;48.478;8.936;2022-08-04T11:14:55;3.10;;;2.05;;
15342;SDS011;7771;48.478;8.936;2022-08-04T11:17:21;2.35;;;1.73;;
15342;SDS011;7771;48.478;8.936;2022-08-04T11:19:55;2.17;;;1.60;;
15342;SDS011;7771;48.478;8.936;2022-08-04T11:22:27;2.30;;;2.10;;
15342;SDS011;7771;48.478;8.936;2022-08-04T11:27:34;2.67;;;2.03;;
15342;SDS011;7771;48.478;8.936;2022-08-04T11:30:12;3.62;;;3.30;;
15342;SDS011;7771;48.478;8.936;2022-08-04T11:32:45;2.37;;;1.95;;
15342;SDS011;7771;48.478;8.936;2022-08-04T11:35:15;1.98;;;1.85;;
15342;SDS011;7771;48.478;8.936;2022-08-04T11:37:45;2.00;;;1.80;;
15342;SDS011;7771;48.478;8.936;2022-08-04T11:40:31;1.95;;;1.85;;
15342;SDS011;7771;48.478;8.936;2022-08-04T11:42:55;4.07;;;1.83;;
15342;SDS011;7771;48.478;8.936;2022-08-04T11:45:26;2.00;;;1.80;;
15342;SDS011;7771;48.478;8.936;2022-08-04T11:47:53;2.60;;;1.90;;
15342;SDS011;7771;48.478;8.936;2022-08-04T11:50:20;5.00;;;1.90;;
15342;SDS011;7771;48.478;8.936;2022-08-04T11:52:47;6.40;;;3.35;;
15342;SDS011;7771;48.478;8.936;2022-08-04T11:55:14;3.83;;;2.10;;
15342;SDS011;7771;48.478;8.936;2022-08-04T11:57:40;2.03;;;1.60;;
15342;SDS011;7771;48.478;8.936;2022-08-04T12:00:07;2.28;;;2.10;;
15342;SDS011;7771;48.478;8.936;2022-08-04T12:05:27;4.30;;;1.67;;
15342;SDS011;7771;48.478;8.936;2022-08-04T12:08:02;3.47;;;3.17;;
15342;SDS011;7771;48.478;8.936;2022-08-04T12:13:14;2.08;;;1.73;;
15342;SDS011;7771;48.478;8.936;2022-08-04T12:15:54;2.55;;;2.25;;
15342;SDS011;7771;48.478;8.936;2022-08-04T12:18:51;2.55;;;1.90;;
15342;SDS011;7771;48.478;8.936;2022-08-04T12:21:03;1.50;;;1.40;;
15342;SDS011;7771;48.478;8.936;2022-08-04T12:23:29;4.03;;;1.95;;
15342;SDS011;7771;48.478;8.936;2022-08-04T12:25:58;4.68;;;2.17;;
15342;SDS011;7771;48.478;8.936;2022-08-04T12:28:25;2.03;;;1.80;;
15342;SDS011;7771;48.478;8.936;2022-08-04T12:30:54;1.55;;;1.42;;
15342;SDS011;7771;48.478;8.936;2022-08-04T12:33:22;1.75;;;1.65;;
15342;SDS011;7771;48.478;8.936;2022-08-04T12:35:50;2.00;;;1.62;;
15342;SDS011;7771;48.478;8.936;2022-08-04T12:38:14;1.75;;;1.30;;
15342;SDS011;7771;48.478;8.936;2022-08-04T12:40:49;1.45;;;1.35;;
15342;SDS011;7771;48.478;8.936;2022-08-04T12:43:22;5.53;;;1.50;;
15342;SDS011;7771;48.478;8.936;2022-08-04T12:45:50;2.83;;;1.35;;
15342;SDS011;7771;48.478;8.936;2022-08-04T12:48:17;2.72;;;1.65;;
15342;SDS011;7771;48.478;8.936;2022-08-04T12:50:46;5.30;;;1.67;;
15342;SDS011;7771;48.478;8.936;2022-08-04T12:53:11;1.83;;;1.73;;
15342;SDS011;7771;48.478;8.936;2022-08-04T12:55:37;4.32;;;1.70;;
15342;SDS011;7771;48.478;8.936;2022-08-04T12:58:10;4.28;;;1.95;;
15342;SDS011;7771;48.478;8.936;2022-08-04T13:00:32;2.03;;;1.60;;
15342;SDS011;7771;48.478;8.936;2022-08-04T13:02:59;3.05;;;1.62;;
15342;SDS011;7771;48.478;8.936;2022-08-04T13:05:25;1.60;;;1.50;;
15342;SDS011;7771;48.478;8.936;2022-08-04T13:07:51;2.10;;;1.45;;
15342;SDS011;7771;48.478;8.936;2022-08-04T13:10:19;2.17;;;1.98;;
15342;SDS011;7771;48.478;8.936;2022-08-04T13:12:52;1.80;;;1.70;;
15342;SDS011;7771;48.478;8.936;2022-08-04T13:15:20;1.90;;;1.73;;
15342;SDS011;7771;48.478;8.936;2022-08-04T13:17:52;1.42;;;1.33;;
15342;SDS011;7771;48.478;8.936;2022-08-04T13:20:25;1.52;;;1.42;;
15342;SDS011;7771;48.478;8.936;2022-08-04T13:22:51;1.50;;;1.40;;
15342;SDS011;7771;48.478;8.936;2022-08-04T13:25:17;2.05;;;1.40;;
15342;SDS011;7771;48.478;8.936;2022-08-04T13:27:44;3.35;;;1.55;;
15342;SDS011;7771;48.478;8.936;2022-08-04T13:30:11;1.52;;;1.42;;
15342;SDS011;7771;48.478;8.936;2022-08-04T13:32:38;1.35;;;1.25;;
15342;SDS011;7771;48.478;8.936;2022-08-04T13:35:05;2.28;;;1.40;;
15342;SDS011;7771;48.478;8.936;2022-08-04T13:37:33;1.75;;;1.60;;
15342;SDS011;7771;48.478;8.936;2022-08-04T13:39:59;2.58;;;1.35;;
15342;SDS011;7771;48.478;8.936;2022-08-04T13:42:25;3.97;;;1.58;;
15342;SDS011;7771;48.478;8.936;2022-08-04T13:44:56;2.17;;;1.52;;
15342;SDS011;7771;48.478;8.936;2022-08-04T13:47:21;2.03;;;1.60;;
15342;SDS011;7771;48.478;8.936;2022-08-04T13:52:26;1.42;;;1.23;;
15342;SDS011;7771;48.478;8.936;2022-08-04T13:54:54;1.70;;;1.58;;
15342;SDS011;7771;48.478;8.936;2022-08-04T13:57:22;2.53;;;1.37;;
15342;SDS011;7771;48.478;8.936;2022-08-04T13:59:52;2.55;;;1.23;;
15342;SDS011;7771;48.478;8.936;2022-08-04T14:02:24;3.85;;;1.50;;
15342;SDS011;7771;48.478;8.936;2022-08-04T14:05:07;2.10;;;1.70;;
15342;SDS011;7771;48.478;8.936;2022-08-04T14:07:33;2.90;;;1.67;;
15342;SDS011;7771;48.478;8.936;2022-08-04T14:10:07;1.27;;;1.15;;
15342;SDS011;7771;48.478;8.936;2022-08-04T14:12:28;2.65;;;1.58;;
15342;SDS011;7771;48.478;8.936;2022-08-04T14:14:54;1.70;;;1.60;;
15342;SDS011;7771;48.478;8.936;2022-08-04T14:17:23;4.75;;;2.05;;
15342;SDS011;7771;48.478;8.936;2022-08-04T14:19:50;1.48;;;1.37;;
15342;SDS011;7771;48.478;8.936;2022-08-04T14:22:33;2.90;;;1.75;;
15342;SDS011;7771;48.478;8.936;2022-08-04T14:27:48;1.87;;;1.70;;
15342;SDS011;7771;48.478;8.936;2022-08-04T14:30:22;1.80;;;1.33;;
15342;SDS011;7771;48.478;8.936;2022-08-04T14:35:31;5.28;;;1.95;;
15342;SDS011;7771;48.478;8.936;2022-08-04T14:37:58;1.85;;;1.65;;
15342;SDS011;7771;48.478;8.936;2022-08-04T14:40:26;2.97;;;1.90;;
15342;SDS011;7771;48.478;8.936;2022-08-04T14:42:53;2.58;;;2.00;;
15342;SDS011;7771;48.478;8.936;2022-08-04T14:45:38;1.70;;;1.60;;
15342;SDS011;7771;48.478;8.936;2022-08-04T14:48:06;2.60;;;1.90;;
15342;SDS011;7771;48.478;8.936;2022-08-04T14:50:33;2.15;;;1.50;;
15342;SDS011;7771;48.478;8.936;2022-08-04T14:53:02;2.65;;;1.60;;
15342;SDS011;7771;48.478;8.936;2022-08-04T14:55:27;4.40;;;1.75;;
15342;SDS011;7771;48.478;8.936;2022-08-04T14:57:54;2.17;;;1.80;;
15342;SDS011;7771;48.478;8.936;2022-08-04T15:00:25;3.17;;;1.75;;
15342;SDS011;7771;48.478;8.936;2022-08-04T15:02:51;2.78;;;1.60;;
15342;SDS011;7771;48.478;8.936;2022-08-04T15:05:19;1.62;;;1.52;;
15342;SDS011;7771;48.478;8.936;2022-08-04T15:07:45;3.00;;;1.60;;
15342;SDS011;7771;48.478;8.936;2022-08-04T15:10:13;1.90;;;1.80;;
15342;SDS011;7771;48.478;8.936;2022-08-04T15:12:39;1.50;;;1.40;;
15342;SDS011;7771;48.478;8.936;2022-08-04T15:15:06;2.37;;;2.08;;
15342;SDS011;7771;48.478;8.936;2022-08-04T15:17:33;1.90;;;1.80;;
15342;SDS011;7771;48.478;8.936;2022-08-04T15:19:59;4.20;;;1.70;;
15342;SDS011;7771;48.478;8.936;2022-08-04T15:22:26;1.80;;;1.60;;
15342;SDS011;7771;48.478;8.936;2022-08-04T15:24:53;2.60;;;1.80;;
15342;SDS011;7771;48.478;8.936;2022-08-04T15:27:20;2.70;;;1.50;;
15342;SDS011;7771;48.478;8.936;2022-08-04T15:29:47;2.45;;;1.80;;
15342;SDS011;7771;48.478;8.936;2022-08-04T15:32:15;1.77;;;1.67;;
15342;SDS011;7771;48.478;8.936;2022-08-04T15:34:49;1.73;;;1.42;;
15342;SDS011;7771;48.478;8.936;2022-08-04T15:37:22;2.25;;;1.60;;
15342;SDS011;7771;48.478;8.936;2022-08-04T15:39:47;3.67;;;1.70;;
15342;SDS011;7771;48.478;8.936;2022-08-04T15:42:14;2.30;;;1.50;;
15342;SDS011;7771;48.478;8.936;2022-08-04T15:44:54;2.92;;;1.70;;
15342;SDS011;7771;48.478;8.936;2022-08-04T15:47:20;3.83;;;2.10;;
15342;SDS011;7771;48.478;8.936;2022-08-04T15:50:01;4.18;;;1.55;;
15342;SDS011;7771;48.478;8.936;2022-08-04T15:52:14;2.40;;;1.92;;
15342;SDS011;7771;48.478;8.936;2022-08-04T15:54:40;2.30;;;2.10;;
15342;SDS011;7771;48.478;8.936;2022-08-04T15:57:07;1.95;;;1.80;;
15342;SDS011;7771;48.478;8.936;2022-08-04T16:07:59;2.28;;;2.08;;
15342;SDS011;7771;48.478;8.936;2022-08-04T16:10:40;3.60;;;1.87;;
15342;SDS011;7771;48.478;8.936;2022-08-04T16:13:07;5.15;;;4.75;;
15342;SDS011;7771;48.478;8.936;2022-08-04T16:15:40;3.67;;;2.40;;
15342;SDS011;7771;48.478;8.936;2022-08-04T16:18:09;3.87;;;2.03;;
15342;SDS011;7771;48.478;8.936;2022-08-04T16:20:36;2.97;;;2.08;;
15342;SDS011;7771;48.478;8.936;2022-08-04T16:25:57;3.67;;;2.47;;
15342;SDS011;7771;48.478;8.936;2022-08-04T16:31:04;4.50;;;2.25;;
15342;SDS011;7771;48.478;8.936;2022-08-04T16:33:32;2.83;;;2.28;;
15342;SDS011;7771;48.478;8.936;2022-08-04T16:35:59;4.97;;;2.15;;
15342;SDS011;7771;48.478;8.936;2022-08-04T16:38:26;2.33;;;2.12;;
15342;SDS011;7771;48.478;8.936;2022-08-04T16:40:54;11.50;;;5.80;;
15342;SDS011;7771;48.478;8.936;2022-08-04T16:43:21;3.70;;;2.70;;
15342;SDS011;7771;48.478;8.936;2022-08-04T16:45:52;3.10;;;2.15;;
15342;SDS011;7771;48.478;8.936;2022-08-04T16:48:20;2.70;;;2.47;;
15342;SDS011;7771;48.478;8.936;2022-08-04T16:50:49;2.97;;;2.70;;
15342;SDS011;7771;48.478;8.936;2022-08-04T16:53:16;3.20;;;1.98;;
15342;SDS011;7771;48.478;8.936;2022-08-04T16:55:45;2.30;;;2.10;;
15342;SDS011;7771;48.478;8.936;2022-08-04T16:58:11;2.30;;;2.10;;
15342;SDS011;7771;48.478;8.936;2022-08-04T17:00:39;4.85;;;2.15;;